createdAt,value
2024-01-08T00:00:11.343Z,103019.09
2024-01-08T00:02:39.365Z,103017.28
2024-01-08T00:05:07.768Z,103020.84
2024-01-08T00:07:35.802Z,103020.03
2024-01-08T00:10:03.881Z,103019.31
2024-01-08T00:12:34.765Z,103013.19
2024-01-08T00:15:04.581Z,103011.47
2024-01-08T00:17:32.786Z,103005.31
2024-01-08T00:20:03.603Z,103007.19
2024-01-08T00:22:34.428Z,103012.56
2024-01-08T00:25:02.488Z,103010.75
2024-01-08T00:27:30.483Z,103011.69
2024-01-08T00:29:58.411Z,103022.38
2024-01-08T00:32:28.165Z,103000.97
2024-01-08T00:34:56.569Z,103006.38
2024-01-08T00:37:27.533Z,103007.31
2024-01-08T00:39:55.528Z,103010.84
2024-01-08T00:42:23.517Z,103008.19
2024-01-08T00:44:51.684Z,103008.19
2024-01-08T00:47:22.209Z,103009.06
2024-01-08T00:49:51.763Z,103002.88
2024-01-08T00:52:21.199Z,103009.97
2024-01-08T00:54:51.723Z,103012.69
2024-01-08T00:57:19.698Z,103009.16
2024-01-08T00:59:47.765Z,103016.31
2024-01-08T01:02:15.848Z,103025.28
2024-01-08T01:04:44.056Z,103019.94
2024-01-08T01:07:13.661Z,103019.06
2024-01-08T01:09:41.650Z,103020.00
2024-01-08T01:12:09.657Z,103026.28
2024-01-08T01:14:37.912Z,103027.19
2024-01-08T01:17:06.108Z,103025.41
2024-01-08T01:19:34.548Z,103030.75
2024-01-08T01:22:02.587Z,103038.81
2024-01-08T01:24:34.693Z,103040.59
2024-01-08T01:27:02.792Z,103041.53
2024-01-08T01:29:30.946Z,103046.88
2024-01-08T01:31:59.017Z,103041.53
2024-01-08T01:34:27.403Z,103043.41
2024-01-08T01:36:55.378Z,103046.94
2024-01-08T01:39:23.456Z,103053.22
2024-01-08T01:41:54.529Z,103051.44
2024-01-08T01:44:23.201Z,103047.03
2024-01-08T01:46:53.008Z,103055.03
2024-01-08T01:49:23.364Z,103043.53
2024-01-08T01:51:52.897Z,103052.41
2024-01-08T01:54:24.047Z,103053.28
2024-01-08T01:56:55.673Z,103051.56
2024-01-08T01:59:25.381Z,103050.75
2024-01-08T02:01:53.845Z,103049.00
2024-01-08T02:04:24.262Z,103054.34
2024-01-08T02:06:53.580Z,103046.34
2024-01-08T02:09:21.664Z,103052.56
2024-01-08T02:11:49.621Z,103053.44
2024-01-08T02:14:18.987Z,103049.00
2024-01-08T02:16:47.181Z,103046.38
2024-01-08T02:19:17.644Z,103042.84
2024-01-08T02:21:45.783Z,103049.06
2024-01-08T02:24:15.813Z,103046.44
2024-01-08T02:26:48.415Z,103042.91
2024-01-08T02:29:16.960Z,103049.19
2024-01-08T02:31:44.909Z,103050.06
2024-01-08T02:34:15.550Z,103051.84
2024-01-08T02:36:43.567Z,103046.44
2024-01-08T02:39:11.571Z,103044.69
2024-01-08T02:41:40.968Z,103047.38
2024-01-08T02:44:09.035Z,103051.84
2024-01-08T02:46:37.066Z,103055.41
2024-01-08T02:49:05.078Z,103060.81
2024-01-08T02:51:33.113Z,103060.88
2024-01-08T02:54:01.065Z,103060.81
2024-01-08T02:56:29.392Z,103051.03
2024-01-08T02:58:58.928Z,103056.41
2024-01-08T03:01:27.640Z,103058.22
2024-01-08T03:03:55.750Z,103061.81
2024-01-08T03:06:23.888Z,103058.22
2024-01-08T03:08:55.317Z,103056.50
2024-01-08T03:11:23.426Z,103060.06
2024-01-08T03:13:51.464Z,103063.63
2024-01-08T03:16:20.868Z,103066.28
2024-01-08T03:18:49.022Z,103072.56
2024-01-08T03:21:19.208Z,103071.66
2024-01-08T03:23:47.225Z,103070.75
2024-01-08T03:26:15.412Z,103061.84
2024-01-08T03:28:43.409Z,103065.41
2024-01-08T03:31:11.379Z,103065.41
2024-01-08T03:33:40.763Z,103071.66
2024-01-08T03:36:11.715Z,103065.47
2024-01-08T03:38:39.733Z,103061.03
2024-01-08T03:41:10.699Z,103064.63
2024-01-08T03:43:38.716Z,103063.78
2024-01-08T03:46:06.832Z,103065.59
2024-01-08T03:48:34.770Z,103059.34
2024-01-08T03:51:04.191Z,103062.94
2024-01-08T03:53:32.337Z,103066.53
2024-01-08T03:56:00.431Z,103069.19
2024-01-08T03:58:28.460Z,103061.19
2024-01-08T04:00:56.478Z,103066.53
2024-01-08T04:03:24.678Z,103064.78
2024-01-08T04:05:52.964Z,103060.34
2024-01-08T04:08:22.669Z,103068.38
2024-01-08T04:10:50.754Z,103068.38
2024-01-08T04:13:18.757Z,103072.84
2024-01-08T04:15:46.873Z,103069.31
2024-01-08T04:18:16.451Z,103068.38
2024-01-08T04:20:47.245Z,103067.56
2024-01-08T04:23:17.532Z,103050.66
2024-01-08T04:25:46.882Z,103062.22
2024-01-08T04:28:14.921Z,103060.44
2024-01-08T04:30:43.001Z,103061.34
2024-01-08T04:33:12.506Z,103068.44
2024-01-08T04:35:40.554Z,103079.19
2024-01-08T04:38:08.558Z,103071.22
2024-01-08T04:40:36.647Z,103068.56
2024-01-08T04:43:08.509Z,103061.41
2024-01-08T04:45:36.658Z,103064.06
2024-01-08T04:48:05.786Z,103064.97
2024-01-08T04:50:33.798Z,103055.19
2024-01-08T04:53:01.857Z,103055.19
2024-01-08T04:55:29.849Z,103061.47
2024-01-08T04:58:00.604Z,103063.25
2024-01-08T05:00:30.874Z,103062.38
2024-01-08T05:02:59.035Z,103061.50
2024-01-08T05:05:27.090Z,103057.94
2024-01-08T05:07:55.379Z,103065.13
2024-01-08T05:10:23.343Z,103055.38
2024-01-08T05:12:51.419Z,103059.84
2024-01-08T05:15:19.422Z,103061.63
2024-01-08T05:17:48.890Z,103062.50
2024-01-08T05:20:17.096Z,103058.03
2024-01-08T05:22:45.164Z,103058.03
2024-01-08T05:25:13.086Z,103060.66
2024-01-08T05:27:43.371Z,103055.25
2024-01-08T05:30:12.345Z,103054.38
2024-01-08T05:32:40.518Z,103056.16
2024-01-08T05:35:10.492Z,103055.25
2024-01-08T05:37:38.503Z,103049.91
2024-01-08T05:40:07.759Z,103052.56
2024-01-08T05:42:38.739Z,103049.03
2024-01-08T05:45:08.661Z,103046.34
2024-01-08T05:47:37.003Z,103045.47
2024-01-08T05:50:05.917Z,103047.22
2024-01-08T05:52:35.342Z,103049.91
2024-01-08T05:55:03.320Z,103054.38
2024-01-08T05:57:34.084Z,103057.06
2024-01-08T06:00:02.067Z,103052.59
2024-01-08T06:02:30.003Z,103057.06
2024-01-08T06:04:57.994Z,103057.06
2024-01-08T06:07:26.006Z,103046.34
2024-01-08T06:09:57.968Z,103043.72
2024-01-08T06:12:26.069Z,103047.28
2024-01-08T06:14:56.912Z,103047.28
2024-01-08T06:17:24.946Z,103043.72
2024-01-08T06:19:55.620Z,103051.72
2024-01-08T06:22:23.696Z,103048.16
2024-01-08T06:24:51.862Z,103048.16
2024-01-08T06:27:21.169Z,103049.91
2024-01-08T06:29:50.401Z,103059.72
2024-01-08T06:32:18.491Z,103059.72
2024-01-08T06:34:46.489Z,103057.06
2024-01-08T06:37:14.472Z,103066.88
2024-01-08T06:39:42.458Z,103058.03
2024-01-08T06:42:12.730Z,103059.84
2024-01-08T06:44:42.187Z,103061.59
2024-01-08T06:47:10.251Z,103066.06
2024-01-08T06:49:40.925Z,103058.91
2024-01-08T06:52:09.688Z,103064.25
2024-01-08T06:54:38.588Z,103058.91
2024-01-08T06:57:06.976Z,103063.28
2024-01-08T06:59:35.086Z,103063.28
2024-01-08T07:02:04.900Z,103068.63
2024-01-08T07:04:32.909Z,103065.13
2024-01-08T07:07:00.937Z,103068.66
2024-01-08T07:09:28.949Z,103070.41
2024-01-08T07:11:56.983Z,103067.63
2024-01-08T07:14:25.022Z,103070.25
2024-01-08T07:16:53.498Z,103071.09
2024-01-08T07:19:22.932Z,103075.53
2024-01-08T07:21:51.026Z,103081.75
2024-01-08T07:24:20.092Z,103086.22
2024-01-08T07:26:48.156Z,103087.09
2024-01-08T07:29:16.239Z,103084.31
2024-01-08T07:31:44.294Z,103088.72
2024-01-08T07:34:12.351Z,103087.81
2024-01-08T07:36:41.830Z,103091.34
2024-01-08T07:39:09.818Z,103087.81
2024-01-08T07:41:37.941Z,103089.56
2024-01-08T07:44:06.259Z,103087.78
2024-01-08T07:46:34.457Z,103097.59
2024-01-08T07:49:02.485Z,103103.84
2024-01-08T07:51:32.946Z,103092.22
2024-01-08T07:54:03.477Z,103102.94
2024-01-08T07:56:31.586Z,103102.94
2024-01-08T07:59:03.484Z,103098.38
2024-01-08T08:01:32.088Z,103104.56
2024-01-08T08:04:03.117Z,103106.22
2024-01-08T08:06:32.286Z,103099.06
2024-01-08T08:09:00.705Z,103102.63
2024-01-08T08:11:30.120Z,103109.78
2024-01-08T08:13:58.207Z,103111.59
2024-01-08T08:16:26.348Z,103117.00
2024-01-08T08:18:54.502Z,103122.34
2024-01-08T08:21:22.604Z,103119.66
2024-01-08T08:23:51.534Z,103111.59
2024-01-08T08:26:20.346Z,103119.63
2024-01-08T08:28:49.926Z,103119.63
2024-01-08T08:31:18.055Z,103128.50
2024-01-08T08:33:46.064Z,103119.63
2024-01-08T08:36:16.406Z,103121.41
2024-01-08T08:38:45.560Z,103129.38
2024-01-08T08:41:13.671Z,103131.97
2024-01-08T08:43:41.744Z,103144.44
2024-01-08T08:46:11.124Z,103142.63
2024-01-08T08:48:39.223Z,103143.50
2024-01-08T08:51:07.366Z,103141.72
2024-01-08T08:53:38.820Z,103147.06
2024-01-08T08:56:08.227Z,103147.06
2024-01-08T08:58:36.255Z,103152.41
2024-01-08T09:01:04.590Z,103146.19
2024-01-08T09:03:36.269Z,103149.78
2024-01-08T09:06:10.203Z,103148.91
2024-01-08T09:08:38.448Z,103148.97
2024-01-08T09:11:06.603Z,103160.56
2024-01-08T09:13:34.689Z,103162.41
2024-01-08T09:16:02.663Z,103165.94
2024-01-08T09:18:34.643Z,103166.81
2024-01-08T09:21:02.804Z,103158.81
2024-01-08T09:23:30.996Z,103168.56
2024-01-08T09:25:59.009Z,103157.94
2024-01-08T09:28:27.093Z,103157.94
2024-01-08T09:30:55.510Z,103165.03
2024-01-08T09:33:23.683Z,103165.91
2024-01-08T09:35:53.170Z,103169.44
2024-01-08T09:38:21.801Z,103177.47
2024-01-08T09:40:50.761Z,103174.78
2024-01-08T09:43:20.289Z,103175.66
2024-01-08T09:46:01.930Z,103177.47
2024-01-08T09:48:31.239Z,103174.84
2024-01-08T09:51:02.221Z,103175.78
2024-01-08T09:53:31.861Z,103172.28
2024-01-08T09:56:03.695Z,103174.09
2024-01-08T09:58:31.796Z,103176.75
2024-01-08T10:00:59.813Z,103176.81
2024-01-08T10:03:30.577Z,103176.78
2024-01-08T10:05:58.764Z,103182.13
2024-01-08T10:08:32.117Z,103172.34
2024-01-08T10:11:00.532Z,103169.72
2024-01-08T10:13:28.945Z,103167.94
2024-01-08T10:15:57.081Z,103174.19
2024-01-08T10:18:27.355Z,103168.78
2024-01-08T10:21:10.829Z,103162.53
2024-01-08T10:23:40.554Z,103161.66
2024-01-08T10:26:10.584Z,103170.53
2024-01-08T10:28:39.838Z,103175.03
2024-01-08T10:31:10.123Z,103166.06
2024-01-08T10:33:38.841Z,103163.41
2024-01-08T10:36:08.993Z,103165.19
2024-01-08T10:38:37.451Z,103159.75
2024-01-08T10:41:07.331Z,103161.47
2024-01-08T10:43:35.518Z,103157.78
2024-01-08T10:46:05.428Z,103156.28
2024-01-08T10:48:41.513Z,103159.22
2024-01-08T10:51:10.743Z,103151.09
2024-01-08T10:53:46.480Z,103149.09
2024-01-08T10:56:17.831Z,103147.13
2024-01-08T10:58:54.024Z,103149.63
2024-01-08T11:01:25.153Z,103144.13
2024-01-08T11:03:53.596Z,103148.38
2024-01-08T11:06:24.147Z,103139.38
2024-01-08T11:08:52.363Z,103141.00
2024-01-08T11:11:22.892Z,103137.34
2024-01-08T11:13:51.697Z,103134.59
2024-01-08T11:16:25.597Z,103138.03
2024-01-08T11:18:53.817Z,103151.34
2024-01-08T11:21:28.518Z,103135.25
2024-01-08T11:24:00.263Z,103139.66
2024-01-08T11:26:29.673Z,103134.31
2024-01-08T11:29:07.124Z,103137.81
2024-01-08T11:32:15.867Z,103132.34
2024-01-08T11:34:58.985Z,103127.91
2024-01-08T11:37:37.006Z,103128.72
2024-01-08T11:40:24.068Z,103142.16
2024-01-08T11:42:54.842Z,103130.53
2024-01-08T11:45:23.031Z,103132.31
2024-01-08T11:47:51.325Z,103127.84
2024-01-08T11:50:19.994Z,103118.94
2024-01-08T11:52:49.585Z,103130.53
2024-01-08T11:55:18.426Z,103123.41
2024-01-08T11:57:49.856Z,103126.03
2024-01-08T12:00:21.410Z,103129.56
2024-01-08T12:02:49.700Z,103125.97
2024-01-08T12:05:21.772Z,103138.50
2024-01-08T12:07:53.928Z,103132.25
2024-01-08T12:10:22.622Z,103124.22
2024-01-08T12:12:52.806Z,103124.31
2024-01-08T12:15:22.790Z,103132.34
2024-01-08T12:17:50.946Z,103124.31
2024-01-08T12:20:19.253Z,103134.19
2024-01-08T12:22:50.737Z,103127.09
2024-01-08T12:25:18.810Z,103124.44
2024-01-08T12:27:49.887Z,103116.44
2024-01-08T12:30:18.363Z,103115.56
2024-01-08T12:32:47.864Z,103119.13
2024-01-08T12:35:19.046Z,103118.19
2024-01-08T12:37:47.359Z,103126.16
2024-01-08T12:40:19.783Z,103129.72
2024-01-08T12:42:49.910Z,103120.75
2024-01-08T12:45:22.023Z,103111.84
2024-01-08T12:47:54.782Z,103113.59
2024-01-08T12:50:23.188Z,103122.53
2024-01-08T12:52:51.238Z,103122.53
2024-01-08T12:55:19.199Z,103117.19
2024-01-08T12:57:47.261Z,103112.78
2024-01-08T13:00:15.852Z,103114.59
2024-01-08T13:02:44.012Z,103107.50
2024-01-08T13:05:15.050Z,103106.63
2024-01-08T13:07:43.831Z,103111.97
2024-01-08T13:10:12.098Z,103124.44
2024-01-08T13:12:41.258Z,103111.06
2024-01-08T13:15:10.107Z,103108.38
2024-01-08T13:17:38.214Z,103112.84
2024-01-08T13:20:21.493Z,103116.41
2024-01-08T13:22:55.805Z,103112.84
2024-01-08T13:25:24.658Z,103111.06
2024-01-08T13:27:52.710Z,103106.56
2024-01-08T13:30:21.604Z,103105.69
2024-01-08T13:32:50.161Z,103104.81
2024-01-08T13:35:18.619Z,103110.16
2024-01-08T13:37:47.138Z,103117.28
2024-01-08T13:40:16.618Z,103107.50
2024-01-08T13:42:45.929Z,103111.97
2024-01-08T13:45:14.032Z,103112.91
2024-01-08T13:47:42.225Z,103116.47
2024-01-08T13:50:11.246Z,103124.50
2024-01-08T13:52:39.754Z,103118.31
2024-01-08T13:55:10.853Z,103121.91
2024-01-08T13:57:40.459Z,103137.13
2024-01-08T14:00:09.440Z,103125.53
2024-01-08T14:02:37.859Z,103133.56
2024-01-08T14:05:07.852Z,103142.50
2024-01-08T14:07:36.023Z,103135.34
2024-01-08T14:10:04.066Z,103133.59
2024-01-08T14:12:32.094Z,103139.03
2024-01-08T14:15:01.582Z,103131.94
2024-01-08T14:17:29.772Z,103140.81
2024-01-08T14:19:58.069Z,103139.03
2024-01-08T14:22:26.205Z,103136.38
2024-01-08T14:24:54.177Z,103140.81
2024-01-08T14:27:22.289Z,103146.13
2024-01-08T14:29:51.709Z,103142.50
2024-01-08T14:32:21.500Z,103146.06
2024-01-08T14:34:49.610Z,103148.75
2024-01-08T14:37:18.037Z,103150.53
2024-01-08T14:39:46.526Z,103158.50
2024-01-08T14:42:14.507Z,103146.00
2024-01-08T14:44:42.662Z,103150.50
2024-01-08T14:47:10.731Z,103150.50
2024-01-08T14:49:40.542Z,103151.41
2024-01-08T14:52:08.572Z,103147.81
2024-01-08T14:54:38.702Z,103154.97
2024-01-08T14:57:07.733Z,103155.88
2024-01-08T14:59:42.728Z,103162.13
2024-01-08T15:02:13.525Z,103156.75
2024-01-08T15:04:42.911Z,103159.50
2024-01-08T15:07:11.058Z,103163.94
2024-01-08T15:09:39.069Z,103161.31
2024-01-08T15:12:07.769Z,103156.81
2024-01-08T15:14:35.845Z,103164.84
2024-01-08T15:17:04.169Z,103163.09
2024-01-08T15:19:32.258Z,103172.88
2024-01-08T15:22:01.596Z,103174.72
2024-01-08T15:24:30.585Z,103172.88
2024-01-08T15:26:59.481Z,103164.84
2024-01-08T15:29:27.444Z,103164.84
2024-01-08T15:31:55.487Z,103179.97
2024-01-08T15:34:23.437Z,103180.03
2024-01-08T15:36:54.293Z,103179.16
2024-01-08T15:39:24.051Z,103183.59
2024-01-08T15:41:55.134Z,103183.59
2024-01-08T15:44:23.261Z,103190.69
2024-01-08T15:46:51.384Z,103190.72
2024-01-08T15:49:19.844Z,103193.34
2024-01-08T15:51:47.791Z,103201.38
2024-01-08T15:54:15.851Z,103208.47
2024-01-08T15:56:46.156Z,103204.94
2024-01-08T15:59:14.441Z,103220.97
2024-01-08T16:01:42.621Z,103215.63
2024-01-08T16:04:10.877Z,103223.66
2024-01-08T16:06:38.994Z,103218.34
2024-01-08T16:09:07.343Z,103218.31
2024-01-08T16:11:35.423Z,103234.31
2024-01-08T16:14:04.914Z,103229.09
2024-01-08T16:16:32.945Z,103224.66
2024-01-08T16:19:01.222Z,103231.03
2024-01-08T16:21:29.267Z,103235.47
2024-01-08T16:24:05.981Z,103237.16
2024-01-08T16:26:39.016Z,103236.22
2024-01-08T16:29:10.206Z,103232.56
2024-01-08T16:31:38.325Z,103238.78
2024-01-08T16:34:06.476Z,103230.81
2024-01-08T16:36:34.612Z,103249.47
2024-01-08T16:39:02.753Z,103234.28
2024-01-08T16:41:31.264Z,103246.69
2024-01-08T16:44:01.608Z,103248.44
2024-01-08T16:46:31.335Z,103248.44
2024-01-08T16:48:59.529Z,103235.94
2024-01-08T16:51:27.950Z,103237.75
2024-01-08T16:53:55.960Z,103245.78
2024-01-08T16:56:27.338Z,103251.13
2024-01-08T16:58:56.024Z,103238.66
2024-01-08T17:01:24.521Z,103250.25
2024-01-08T17:03:56.683Z,103246.69
2024-01-08T17:06:27.447Z,103257.41
2024-01-08T17:09:02.728Z,103252.91
2024-01-08T17:11:31.535Z,103252.03
2024-01-08T17:14:02.025Z,103260.94
2024-01-08T17:16:30.207Z,103260.06
2024-01-08T17:18:59.687Z,103268.09
2024-01-08T17:21:27.924Z,103268.94
2024-01-08T17:23:56.010Z,103268.03
2024-01-08T17:26:23.996Z,103270.72
2024-01-08T17:28:56.080Z,103269.81
2024-01-08T17:31:24.919Z,103263.56
2024-01-08T17:33:55.150Z,103266.25
2024-01-08T17:36:26.425Z,103267.13
2024-01-08T17:38:54.593Z,103272.47
2024-01-08T17:41:24.756Z,103272.41
2024-01-08T17:43:53.114Z,103274.16
2024-01-08T17:46:24.079Z,103275.91
2024-01-08T17:48:54.280Z,103275.91
2024-01-08T17:51:22.441Z,103288.41
2024-01-08T17:53:54.378Z,103287.50
2024-01-08T17:56:22.565Z,103288.38
2024-01-08T17:58:51.802Z,103291.03
2024-01-08T18:01:20.281Z,103287.50
2024-01-08T18:03:48.548Z,103294.53
2024-01-08T18:06:16.699Z,103291.00
2024-01-08T18:08:44.873Z,103286.53
2024-01-08T18:11:16.745Z,103287.41
2024-01-08T18:13:47.265Z,103289.16
2024-01-08T18:16:15.892Z,103300.78
2024-01-08T18:18:43.941Z,103300.81
2024-01-08T18:21:12.006Z,103306.16
2024-01-08T18:23:40.747Z,103295.41
2024-01-08T18:26:09.369Z,103301.63
2024-01-08T18:28:39.444Z,103311.44
2024-01-08T18:31:07.628Z,103304.28
2024-01-08T18:33:36.519Z,103311.41
2024-01-08T18:36:05.281Z,103300.69
2024-01-08T18:38:33.935Z,103306.88
2024-01-08T18:41:01.959Z,103308.66
2024-01-08T18:43:29.939Z,103305.97
2024-01-08T18:45:59.417Z,103317.56
2024-01-08T18:48:28.755Z,103304.13
2024-01-08T18:50:59.162Z,103305.06
2024-01-08T18:53:31.595Z,103307.69
2024-01-08T18:55:59.745Z,103319.25
2024-01-08T18:58:27.712Z,103318.38
2024-01-08T19:01:01.056Z,103320.13
2024-01-08T19:03:30.489Z,103314.78
2024-01-08T19:05:59.889Z,103329.91
2024-01-08T19:08:29.520Z,103327.25
2024-01-08T19:11:00.085Z,103326.34
2024-01-08T19:13:28.634Z,103323.59
2024-01-08T19:15:56.622Z,103335.16
2024-01-08T19:18:29.325Z,103329.81
2024-01-08T19:20:58.757Z,103333.41
2024-01-08T19:23:27.011Z,103330.69
2024-01-08T19:25:55.301Z,103328.94
2024-01-08T19:28:23.326Z,103330.69
2024-01-08T19:30:51.789Z,103327.94
2024-01-08T19:33:20.257Z,103337.84
2024-01-08T19:35:48.440Z,103322.66
2024-01-08T19:38:17.974Z,103326.25
2024-01-08T19:40:46.130Z,103323.53
2024-01-08T19:43:16.940Z,103337.84
2024-01-08T19:45:45.276Z,103330.69
2024-01-08T19:48:13.831Z,103337.78
2024-01-08T19:50:42.266Z,103333.31
2024-01-08T19:53:10.445Z,103333.31
2024-01-08T19:55:39.827Z,103325.28
2024-01-08T19:58:08.018Z,103323.50
2024-01-08T20:00:36.245Z,103331.53
2024-01-08T20:03:04.450Z,103332.41
2024-01-08T20:05:35.296Z,103327.06
2024-01-08T20:08:03.630Z,103327.06
2024-01-08T20:10:31.621Z,103332.41
2024-01-08T20:13:01.917Z,103327.88
2024-01-08T20:15:33.702Z,103343.94
2024-01-08T20:18:04.185Z,103332.31
2024-01-08T20:20:35.499Z,103325.22
2024-01-08T20:23:08.744Z,103335.94
2024-01-08T20:25:37.127Z,103327.88
2024-01-08T20:28:07.172Z,103332.31
2024-01-08T20:30:35.338Z,103327.81
2024-01-08T20:33:04.221Z,103337.66
2024-01-08T20:35:32.394Z,103342.97
2024-01-08T20:38:00.379Z,103332.25
2024-01-08T20:40:28.501Z,103327.81
2024-01-08T20:42:56.639Z,103334.97
2024-01-08T20:45:26.402Z,103328.72
2024-01-08T20:47:55.378Z,103338.50
2024-01-08T20:50:23.727Z,103335.81
2024-01-08T20:52:54.568Z,103337.59
2024-01-08T20:55:23.814Z,103334.94
2024-01-08T20:57:54.936Z,103341.09
2024-01-08T21:00:25.360Z,103334.81
2024-01-08T21:02:53.957Z,103335.63
2024-01-08T21:05:22.151Z,103328.50
2024-01-08T21:07:53.022Z,103333.84
2024-01-08T21:10:21.117Z,103341.00
2024-01-08T21:12:51.193Z,103331.22
2024-01-08T21:15:19.314Z,103339.25
2024-01-08T21:17:48.788Z,103332.13
2024-01-08T21:20:17.410Z,103331.25
2024-01-08T21:22:45.543Z,103337.50
2024-01-08T21:25:13.629Z,103336.63
2024-01-08T21:27:45.223Z,103343.78
2024-01-08T21:30:14.154Z,103333.63
2024-01-08T21:32:42.281Z,103331.19
2024-01-08T21:35:14.736Z,103331.19
2024-01-08T21:37:45.533Z,103332.88
2024-01-08T21:40:13.790Z,103332.75
2024-01-08T21:42:44.698Z,103318.38
2024-01-08T21:45:15.832Z,103327.25
2024-01-08T21:47:44.090Z,103332.53
2024-01-08T21:50:12.253Z,103325.28
2024-01-08T21:52:41.621Z,103331.50
2024-01-08T21:55:10.150Z,103343.94
2024-01-08T21:57:38.119Z,103342.16
2024-01-08T22:00:09.461Z,103342.97
2024-01-08T22:02:37.705Z,103339.41
2024-01-08T22:05:06.308Z,103342.03
2024-01-08T22:07:35.987Z,103349.16
2024-01-08T22:10:05.846Z,103360.72
2024-01-08T22:12:37.335Z,103358.03
2024-01-08T22:15:06.328Z,103357.13
2024-01-08T22:17:37.057Z,103358.00
2024-01-08T22:20:05.765Z,103360.66
2024-01-08T22:22:33.864Z,103360.72
2024-01-08T22:25:01.850Z,103358.94
2024-01-08T22:27:31.236Z,103352.78
2024-01-08T22:29:59.421Z,103361.72
2024-01-08T22:32:28.050Z,103367.06
2024-01-08T22:34:56.058Z,103365.28
2024-01-08T22:37:24.133Z,103367.06
2024-01-08T22:39:54.998Z,103366.19
2024-01-08T22:42:22.984Z,103375.09
2024-01-08T22:44:52.377Z,103370.69
2024-01-08T22:47:20.460Z,103373.34
2024-01-08T22:49:48.602Z,103367.13
2024-01-08T22:52:16.655Z,103380.53
2024-01-08T22:54:44.646Z,103376.09
2024-01-08T22:57:12.637Z,103385.03
2024-01-08T22:59:43.501Z,103386.84
2024-01-08T23:02:13.125Z,103380.63
2024-01-08T23:04:43.174Z,103372.59
2024-01-08T23:07:11.243Z,103382.44
2024-01-08T23:09:39.211Z,103369.09
2024-01-08T23:12:08.042Z,103378.06
2024-01-08T23:14:36.112Z,103387.84
2024-01-08T23:17:04.438Z,103374.44
2024-01-08T23:19:35.448Z,103378.94
2024-01-08T23:22:03.535Z,103372.69
2024-01-08T23:24:32.287Z,103373.56
2024-01-08T23:27:02.024Z,103378.97
2024-01-08T23:29:30.218Z,103374.53
2024-01-08T23:31:58.128Z,103371.94
2024-01-08T23:34:26.188Z,103377.28
2024-01-08T23:36:55.818Z,103377.28
2024-01-08T23:39:26.162Z,103384.44
2024-01-08T23:41:54.287Z,103368.44
2024-01-08T23:44:22.399Z,103374.72
2024-01-08T23:46:59.163Z,103380.13
2024-01-08T23:49:27.269Z,103364.13
2024-01-08T23:51:56.697Z,103378.44
2024-01-08T23:54:24.738Z,103365.09
2024-01-08T23:56:52.832Z,103369.59
2024-01-08T23:59:20.885Z,103375.88
